Time;durP1;ratioP1;P1;durP2;ratioP2;P2;SDS_P1;SDS_P2;PMS_P1;PMS_P2;Temp;Humidity;BMP_temperature;BMP_pressure;BME280_temperature;BME280_humidity;BME280_pressure;Samples;Min_cycle;Max_cycle;Signal;HPM_P1;HPM_P2
2023/04/05 00:00:25;;;;;;;5.60;2.77;;;;;;;0.99;52.89;100456.53;1442144;91;21717;-85
2023/04/05 00:02:53;;;;;;;4.70;2.87;;;;;;;0.88;52.36;100454.05;1442197;91;21743;-85
2023/04/05 00:05:28;;;;;;;5.70;2.80;;;;;;;0.93;52.88;100453.80;1433620;90;22293;-86
2023/04/05 00:07:53;;;;;;;7.23;3.43;;;;;;;0.87;52.87;100457.59;1438471;90;22069;-83
2023/04/05 00:10:38;;;;;;;5.57;3.13;;;;;;;0.88;52.99;100454.05;1409429;92;22020;-82
2023/04/05 00:13:06;;;;;;;6.37;3.20;;;;;;;0.87;52.73;100455.45;1432338;91;22762;-85
2023/04/05 00:15:33;;;;;;;6.20;3.63;;;;;;;0.85;52.54;100472.93;1433169;91;21638;-85
2023/04/05 00:18:02;;;;;;;5.73;3.40;;;;;;;0.83;52.80;100457.37;1433045;91;22172;-85
2023/04/05 00:20:29;;;;;;;4.17;2.83;;;;;;;0.81;52.54;100459.23;1429711;91;21675;-82
2023/04/05 00:22:57;;;;;;;8.87;3.60;;;;;;;0.80;52.36;100467.13;1412337;91;22906;-86
2023/04/05 00:25:25;;;;;;;5.53;3.00;;;;;;;0.80;52.45;100468.42;1426849;91;21596;-85
2023/04/05 00:27:52;;;;;;;7.33;3.05;;;;;;;0.80;52.64;100467.95;1435355;91;23066;-86
2023/04/05 00:30:22;;;;;;;3.47;2.70;;;;;;;0.77;52.58;100470.73;1431022;91;21639;-87
2023/04/05 00:32:50;;;;;;;13.22;4.53;;;;;;;0.74;52.30;100467.47;1423183;90;22060;-87
2023/04/05 00:35:17;;;;;;;5.37;3.13;;;;;;;0.78;52.52;100465.92;1409579;92;22191;-87
2023/04/05 00:37:44;;;;;;;6.23;3.83;;;;;;;0.76;52.91;100472.97;1428759;91;21434;-85
2023/04/05 00:40:11;;;;;;;5.40;3.00;;;;;;;0.71;52.41;100468.94;1409699;90;21588;-86
2023/04/05 00:42:38;;;;;;;6.90;3.60;;;;;;;0.66;52.85;100469.17;1415334;91;22265;-88
2023/04/05 00:45:07;;;;;;;8.67;3.60;;;;;;;0.65;52.74;100468.81;1434780;90;21912;-87
2023/04/05 00:47:36;;;;;;;4.83;3.12;;;;;;;0.65;53.03;100464.90;1428033;91;22287;-86
2023/04/05 00:50:04;;;;;;;8.75;3.83;;;;;;;0.62;52.75;100467.67;1434780;88;21508;-87
2023/04/05 00:52:32;;;;;;;4.97;2.98;;;;;;;0.66;53.13;100466.13;1429887;90;21489;-89
2023/04/05 00:55:00;;;;;;;7.22;4.40;;;;;;;0.57;53.19;100459.27;1406241;92;22286;-88
2023/04/05 00:57:29;;;;;;;6.87;3.75;;;;;;;0.58;53.42;100460.96;1424656;90;21309;-87
2023/04/05 01:00:00;;;;;;;6.97;2.87;;;;;;;0.57;53.49;100455.35;1432467;90;21427;-86
2023/04/05 01:02:38;;;;;;;5.75;2.87;;;;;;;0.51;53.33;100460.90;1424904;90;22381;-85
2023/04/05 01:05:18;;;;;;;4.92;2.40;;;;;;;0.52;53.26;100462.13;1429239;90;21407;-84
2023/04/05 01:08:09;;;;;;;7.28;2.87;;;;;;;0.45;53.27;100460.30;1434293;90;22050;-85
2023/04/05 01:10:40;;;;;;;4.60;2.55;;;;;;;0.48;53.42;100463.67;1416093;91;21466;-84
2023/04/05 01:13:07;;;;;;;5.33;3.08;;;;;;;0.42;53.48;100465.67;1435784;90;21570;-86
2023/04/05 01:15:35;;;;;;;9.48;3.60;;;;;;;0.48;53.93;100463.67;1430204;90;22413;-85
2023/04/05 01:18:03;;;;;;;9.38;4.40;;;;;;;0.48;53.69;100463.67;1431690;91;21360;-86
2023/04/05 01:20:36;;;;;;;8.50;3.35;;;;;;;0.47;53.58;100466.73;1428053;90;21608;-85
2023/04/05 01:23:33;;;;;;;6.30;3.45;;;;;;;0.42;53.60;100459.62;1429541;90;21552;-86
2023/04/05 01:26:23;;;;;;;5.72;3.47;;;;;;;0.42;53.88;100459.16;1412476;90;21421;-87
2023/04/05 01:29:32;;;;;;;6.83;4.28;;;;;;;0.37;53.91;100455.13;1394362;92;21649;-83
2023/04/05 01:32:35;;;;;;;8.93;3.52;;;;;;;0.41;53.89;100454.89;1430595;90;21385;-84
2023/04/05 01:35:19;;;;;;;5.50;2.70;;;;;;;0.38;54.22;100460.73;1409653;90;21620;-84
2023/04/05 01:37:51;;;;;;;6.12;3.27;;;;;;;0.36;53.99;100454.28;1407424;90;21427;-85
2023/04/05 01:40:19;;;;;;;8.95;3.42;;;;;;;0.41;54.41;100456.19;1414099;91;22350;-85
2023/04/05 01:42:46;;;;;;;6.15;3.12;;;;;;;0.39;54.20;100454.12;1439591;90;23347;-85
2023/04/05 01:45:14;;;;;;;4.83;2.50;;;;;;;0.41;54.35;100448.84;1432979;91;21441;-83
2023/04/05 01:47:41;;;;;;;6.25;2.75;;;;;;;0.35;54.17;100447.88;1413206;91;21577;-85
2023/04/05 01:50:09;;;;;;;7.83;2.90;;;;;;;0.38;54.60;100450.31;1429117;90;21396;-85
2023/04/05 01:52:36;;;;;;;6.78;3.35;;;;;;;0.38;54.35;100442.50;1425897;90;22395;-85
2023/04/05 01:55:05;;;;;;;6.70;2.83;;;;;;;0.37;54.22;100441.64;1430226;91;21389;-85
2023/04/05 01:57:32;;;;;;;5.30;2.30;;;;;;;0.37;54.29;100444.23;1420764;91;21456;-85
2023/04/05 02:00:00;;;;;;;9.18;2.85;;;;;;;0.39;53.90;100439.80;1418855;91;21531;-83
2023/04/05 02:02:29;;;;;;;8.25;2.80;;;;;;;0.49;53.86;100439.30;1430318;91;21360;-84
2023/04/05 02:04:56;;;;;;;5.87;2.22;;;;;;;0.44;53.68;100443.00;1423081;91;22431;-84
2023/04/05 02:07:25;;;;;;;4.42;1.92;;;;;;;0.47;53.45;100446.38;1434427;91;21316;-80
2023/04/05 02:09:53;;;;;;;5.85;2.50;;;;;;;0.50;53.20;100450.11;1441017;91;21501;-84
2023/04/05 02:12:21;;;;;;;3.50;2.35;;;;;;;0.41;52.75;100446.23;1431740;91;21340;-83
2023/04/05 02:14:50;;;;;;;11.30;3.25;;;;;;;0.48;52.89;100448.05;1431467;91;22051;-84
2023/04/05 02:17:18;;;;;;;5.45;2.90;;;;;;;0.45;53.08;100444.67;1423419;90;22366;-85
2023/04/05 02:19:46;;;;;;;5.62;2.77;;;;;;;0.48;52.77;100446.74;1435522;90;21578;-85
2023/04/05 02:22:13;;;;;;;5.87;3.67;;;;;;;0.51;53.15;100437.45;1429348;91;22247;-84
2023/04/05 02:24:41;;;;;;;4.95;2.37;;;;;;;0.50;53.11;100441.83;1428129;91;22276;-84
2023/04/05 02:27:09;;;;;;;7.12;2.02;;;;;;;0.47;52.58;100437.27;1429571;90;22458;-83
2023/04/05 02:29:37;;;;;;;4.97;2.52;;;;;;;0.51;52.60;100442.67;1434209;91;21456;-85
2023/04/05 02:32:04;;;;;;;5.13;2.90;;;;;;;0.50;52.96;100434.48;1430384;91;21543;-86
2023/04/05 02:34:32;;;;;;;3.77;2.02;;;;;;;0.42;52.44;100431.81;1428929;90;22596;-85
2023/04/05 02:37:00;;;;;;;4.00;2.62;;;;;;;0.42;52.49;100438.80;1427205;90;21415;-86
2023/04/05 02:39:28;;;;;;;3.93;2.23;;;;;;;0.47;52.87;100435.95;1433833;90;21502;-87
2023/04/05 02:41:56;;;;;;;4.72;2.10;;;;;;;0.49;52.63;100437.56;1430606;91;21643;-87
2023/04/05 02:44:28;;;;;;;4.92;2.37;;;;;;;0.44;52.96;100445.61;1433693;90;22373;-87
2023/04/05 02:46:55;;;;;;;6.58;2.58;;;;;;;0.43;52.77;100427.45;1432521;90;21362;-86
2023/04/05 02:49:23;;;;;;;5.67;2.77;;;;;;;0.43;52.88;100432.22;1413979;90;21497;-87
2023/04/05 02:51:50;;;;;;;4.58;1.82;;;;;;;0.43;53.16;100440.03;1416896;91;21451;-83
2023/04/05 02:54:18;;;;;;;7.55;2.95;;;;;;;0.46;53.17;100437.70;1424975;90;21639;-85
2023/04/05 02:56:46;;;;;;;8.27;2.73;;;;;;;0.41;52.92;100439.27;1434889;90;22352;-85
2023/04/05 02:59:14;;;;;;;6.25;3.10;;;;;;;0.42;52.85;100439.63;1429310;90;21789;-87
2023/04/05 03:01:43;;;;;;;5.20;2.77;;;;;;;0.44;53.16;100439.56;1429716;90;21383;-85
2023/04/05 03:04:16;;;;;;;7.65;2.67;;;;;;;0.43;53.25;100433.52;1433183;90;21515;-83
2023/04/05 03:06:43;;;;;;;5.97;2.58;;;;;;;0.47;53.23;100439.86;1433456;90;21462;-85
2023/04/05 03:09:09;;;;;;;3.87;2.40;;;;;;;0.40;52.72;100449.31;1429765;90;21414;-85
2023/04/05 03:11:37;;;;;;;5.10;2.17;;;;;;;0.43;53.28;100441.33;1389725;91;21423;-85
2023/04/05 03:14:04;;;;;;;3.67;2.08;;;;;;;0.40;53.92;100442.80;1429433;90;22540;-82
2023/04/05 03:16:31;;;;;;;4.92;2.30;;;;;;;0.39;53.17;100436.36;1429432;91;21404;-85
2023/04/05 03:18:58;;;;;;;6.95;3.12;;;;;;;0.40;53.27;100438.89;1429456;91;21482;-83
2023/04/05 03:21:28;;;;;;;6.47;3.00;;;;;;;0.36;53.57;100434.76;1410223;91;21405;-84
2023/04/05 03:23:55;;;;;;;5.50;2.63;;;;;;;0.45;53.99;100440.77;1418910;90;21588;-82
2023/04/05 03:26:23;;;;;;;4.77;2.20;;;;;;;0.42;53.86;100440.94;1427395;90;23113;-86
2023/04/05 03:28:50;;;;;;;6.10;2.60;;;;;;;0.37;54.17;100438.20;1438348;90;21539;-86
2023/04/05 03:31:18;;;;;;;16.67;3.15;;;;;;;0.38;54.25;100444.64;1430621;90;21496;-85
2023/04/05 03:33:45;;;;;;;7.25;2.92;;;;;;;0.40;54.42;100440.20;1431856;90;21356;-85
2023/04/05 03:36:15;;;;;;;6.03;2.85;;;;;;;0.37;54.53;100435.12;1440667;90;21489;-85
2023/04/05 03:38:44;;;;;;;9.75;3.22;;;;;;;0.39;55.12;100441.56;1434913;90;21891;-83
2023/04/05 03:41:12;;;;;;;8.77;3.80;;;;;;;0.38;55.40;100443.34;1422509;90;21526;-85
2023/04/05 03:43:39;;;;;;;6.87;3.42;;;;;;;0.30;55.37;100441.59;1434825;91;22323;-85
2023/04/05 03:46:07;;;;;;;6.53;3.42;;;;;;;0.28;55.77;100438.23;1433198;90;21386;-84
2023/04/05 03:48:34;;;;;;;12.10;4.22;;;;;;;0.26;56.13;100444.00;1432466;90;22542;-85
2023/04/05 03:51:01;;;;;;;8.45;3.77;;;;;;;0.30;56.49;100437.69;1430180;90;21349;-84
2023/04/05 03:53:29;;;;;;;6.55;3.37;;;;;;;0.32;56.62;100438.93;1412836;90;21545;-83
2023/04/05 03:55:56;;;;;;;6.33;3.70;;;;;;;0.33;57.25;100452.31;1440967;90;22235;-85
2023/04/05 03:58:26;;;;;;;8.08;3.85;;;;;;;0.32;56.78;100446.27;1428941;90;21434;-85
2023/04/05 04:00:55;;;;;;;6.20;3.50;;;;;;;0.30;56.93;100453.31;1426260;90;21484;-84
2023/04/05 04:03:24;;;;;;;12.63;4.25;;;;;;;0.28;56.52;100446.50;1439624;90;21421;-84
2023/04/05 04:05:51;;;;;;;6.97;3.58;;;;;;;0.32;56.88;100450.17;1454639;89;21510;-87
2023/04/05 04:08:19;;;;;;;6.30;3.92;;;;;;;0.31;56.72;100449.77;1439580;90;21515;-84
2023/04/05 04:10:46;;;;;;;8.05;3.25;;;;;;;0.28;56.75;100452.55;1443051;91;22261;-84
2023/04/05 04:13:13;;;;;;;8.80;4.53;;;;;;;0.25;57.30;100439.69;1427016;91;21410;-84
2023/04/05 04:15:41;;;;;;;9.88;3.62;;;;;;;0.32;57.45;100441.06;1437920;91;21560;-84
2023/04/05 04:18:08;;;;;;;7.20;3.72;;;;;;;0.28;57.16;100443.44;1428760;91;22300;-83
2023/04/05 04:20:35;;;;;;;8.50;3.80;;;;;;;0.26;57.43;100439.23;1412675;91;22362;-85
2023/04/05 04:23:26;;;;;;;8.30;4.50;;;;;;;0.28;57.74;100435.62;1420237;91;21417;-84
2023/04/05 04:25:53;;;;;;;8.05;4.42;;;;;;;0.27;57.75;100439.16;1456051;89;22468;-84
2023/04/05 04:28:23;;;;;;;9.70;4.30;;;;;;;0.31;58.09;100438.06;1461376;89;22424;-84
2023/04/05 04:30:50;;;;;;;8.13;4.30;;;;;;;0.31;58.94;100435.92;1457737;89;21367;-85
2023/04/05 04:33:18;;;;;;;9.73;4.55;;;;;;;0.34;58.84;100434.45;1448595;89;21523;-84
2023/04/05 04:35:46;;;;;;;10.53;4.37;;;;;;;0.29;58.71;100437.33;1464881;89;21383;-85
2023/04/05 04:38:19;;;;;;;12.82;5.47;;;;;;;0.29;58.90;100436.02;1461218;89;21979;-87
2023/04/05 04:40:49;;;;;;;8.08;3.75;;;;;;;0.30;58.89;100439.46;1441286;89;21397;-84
2023/04/05 04:43:16;;;;;;;11.70;5.70;;;;;;;0.31;59.23;100437.22;1459920;88;21529;-86
2023/04/05 04:45:48;;;;;;;14.03;5.35;;;;;;;0.31;59.29;100439.36;1467648;88;21358;-86
2023/04/05 04:48:17;;;;;;;9.33;4.53;;;;;;;0.32;59.13;100437.16;1460486;89;21544;-87
2023/04/05 04:50:50;;;;;;;6.47;3.92;;;;;;;0.24;59.37;100448.44;1463558;89;21359;-86
2023/04/05 04:53:17;;;;;;;6.83;4.10;;;;;;;0.29;59.09;100439.93;1440298;88;22529;-87
2023/04/05 04:55:48;;;;;;;6.17;3.85;;;;;;;0.29;59.42;100437.77;1454523;88;21978;-85
2023/04/05 04:58:14;;;;;;;7.10;4.47;;;;;;;0.25;59.42;100446.20;1466796;88;21508;-86
2023/04/05 05:00:44;;;;;;;6.50;3.42;;;;;;;0.28;59.40;100446.50;1471747;88;21367;-86
2023/04/05 05:03:12;;;;;;;9.50;5.12;;;;;;;0.28;59.37;100446.50;1450362;89;21560;-86
2023/04/05 05:05:49;;;;;;;18.77;9.67;;;;;;;0.35;59.70;100441.36;1428225;89;21523;-87
2023/04/05 05:08:17;;;;;;;8.95;5.00;;;;;;;0.38;59.40;100447.70;1450168;89;22064;-85
2023/04/05 05:10:44;;;;;;;10.43;4.87;;;;;;;0.34;59.37;100449.61;1451610;88;22551;-86
2023/04/05 05:13:12;;;;;;;10.58;4.85;;;;;;;0.39;59.67;100451.52;1446807;89;21441;-85
2023/04/05 05:15:40;;;;;;;9.97;4.40;;;;;;;0.35;59.39;100454.38;1452577;88;21535;-88
2023/04/05 05:18:09;;;;;;;7.83;3.58;;;;;;;0.34;59.22;100453.52;1434522;88;21922;-86
2023/04/05 05:20:36;;;;;;;12.30;6.27;;;;;;;0.38;59.29;100460.27;1457459;89;22335;-86
2023/04/05 05:23:04;;;;;;;10.80;4.20;;;;;;;0.41;59.40;100454.89;1439706;88;21980;-84
2023/04/05 05:25:31;;;;;;;10.57;4.67;;;;;;;0.47;59.56;100459.39;1456174;89;21427;-87
2023/04/05 05:27:59;;;;;;;6.00;3.58;;;;;;;0.45;58.91;100455.09;1460677;88;22138;-88
2023/04/05 05:30:35;;;;;;;7.87;4.12;;;;;;;0.41;58.93;100456.19;1445344;89;21412;-86
2023/04/05 05:33:03;;;;;;;8.40;4.07;;;;;;;0.45;58.96;100460.30;1462441;88;22335;-86
2023/04/05 05:35:30;;;;;;;6.00;3.63;;;;;;;0.52;59.43;100465.17;1455936;88;21718;-87
2023/04/05 05:37:58;;;;;;;11.07;4.97;;;;;;;0.57;59.33;100469.68;1436827;88;22183;-86
2023/04/05 05:40:25;;;;;;;6.40;3.53;;;;;;;0.54;59.25;100469.38;1443693;88;22577;-87
2023/04/05 05:42:53;;;;;;;8.57;3.90;;;;;;;0.60;58.85;100465.60;1445757;88;22005;-85
2023/04/05 05:45:20;;;;;;;7.90;4.20;;;;;;;0.70;58.98;100463.36;1456488;88;22503;-83
2023/04/05 05:47:50;;;;;;;7.67;3.47;;;;;;;0.74;58.90;100463.55;1443238;89;21705;-85
2023/04/05 05:50:19;;;;;;;15.97;5.23;;;;;;;0.77;58.81;100472.03;1408356;91;22293;-84
2023/04/05 05:52:46;;;;;;;16.17;5.93;;;;;;;0.70;57.91;100470.70;1451057;88;21548;-88
2023/04/05 05:55:24;;;;;;;17.47;6.43;;;;;;;0.97;62.14;100459.68;1458736;88;21572;-87
2023/04/05 05:57:51;;;;;;;8.83;4.87;;;;;;;1.06;59.72;100450.03;1444639;89;21646;-88
2023/04/05 06:00:20;;;;;;;28.40;5.30;;;;;;;1.18;60.16;100457.19;1413648;92;22568;-81
2023/04/05 06:02:48;;;;;;;11.53;5.63;;;;;;;1.31;58.25;100458.16;1460918;88;23963;-87
2023/04/05 06:05:16;;;;;;;8.43;4.20;;;;;;;1.29;58.58;100460.00;1464834;89;21600;-87
2023/04/05 06:07:43;;;;;;;18.07;8.17;;;;;;;1.35;57.30;100453.16;1464119;89;21620;-87
2023/04/05 06:10:12;;;;;;;10.00;5.20;;;;;;;1.51;57.70;100460.92;1460578;89;21526;-87
2023/04/05 06:12:39;;;;;;;9.47;3.63;;;;;;;1.58;57.17;100458.34;1445769;88;21713;-86
2023/04/05 06:15:10;;;;;;;10.20;4.60;;;;;;;1.64;56.99;100462.80;1457645;88;21436;-87
2023/04/05 06:17:41;;;;;;;11.83;4.70;;;;;;;1.68;57.04;100457.33;1462411;88;22480;-88
2023/04/05 06:20:29;;;;;;;9.93;3.60;;;;;;;1.70;56.82;100462.00;1443372;89;21412;-88
2023/04/05 06:22:57;;;;;;;7.67;4.33;;;;;;;1.70;56.46;100465.92;1433246;89;21578;-89
2023/04/05 06:26:26;;;;;;;14.57;5.63;;;;;;;1.47;55.99;100467.25;1438758;90;21582;-87
2023/04/05 06:28:53;;;;;;;6.93;3.70;;;;;;;1.44;56.05;100467.44;1435153;90;21439;-87
2023/04/05 06:31:33;;;;;;;8.60;4.10;;;;;;;1.60;56.07;100466.06;1441241;90;21856;-89
2023/04/05 06:34:00;;;;;;;11.17;4.60;;;;;;;1.52;55.65;100468.27;1432064;90;21643;-89
2023/04/05 06:36:32;;;;;;;9.10;5.03;;;;;;;1.64;56.23;100469.33;1432336;90;22650;-93
2023/04/05 06:39:01;;;;;;;12.40;5.83;;;;;;;1.74;55.57;100454.36;1445236;90;21516;-81
2023/04/05 06:41:29;;;;;;;9.33;5.03;;;;;;;1.87;56.22;100465.36;1449278;89;21689;-81
2023/04/05 06:43:56;;;;;;;6.83;3.27;;;;;;;2.00;55.09;100467.63;1427919;90;21595;-88
2023/04/05 06:46:30;;;;;;;6.67;4.43;;;;;;;2.08;54.92;100472.41;1432391;89;22018;-76
2023/04/05 06:48:59;;;;;;;10.13;3.97;;;;;;;2.09;54.40;100469.69;1433823;90;22495;-88
2023/04/05 06:51:27;;;;;;;7.03;3.33;;;;;;;2.13;54.46;100470.33;1436679;90;21704;-85
2023/04/05 06:53:55;;;;;;;12.83;4.40;;;;;;;2.36;54.98;100461.09;1435587;90;21814;-91
2023/04/05 06:56:22;;;;;;;15.03;5.47;;;;;;;2.46;54.85;100464.36;1435490;90;21601;-85
2023/04/05 06:58:50;;;;;;;10.00;3.47;;;;;;;2.48;53.81;100472.13;1433394;91;21529;-86
2023/04/05 07:01:17;;;;;;;6.70;3.67;;;;;;;2.43;53.14;100476.78;1438582;90;22225;-89
2023/04/05 07:03:45;;;;;;;6.97;3.33;;;;;;;2.38;52.34;100477.52;1435430;90;21634;-89
2023/04/05 07:06:12;;;;;;;6.20;3.63;;;;;;;2.54;53.12;100473.52;1425911;91;21846;-86
2023/04/05 07:08:40;;;;;;;8.13;3.63;;;;;;;2.82;53.04;100481.31;1438616;90;22958;-80
2023/04/05 07:11:07;;;;;;;14.60;5.10;;;;;;;3.07;53.42;100481.88;1431810;90;21811;-86
2023/04/05 07:13:34;;;;;;;9.77;3.93;;;;;;;3.03;51.90;100494.79;1437550;90;21833;-88
2023/04/05 07:16:02;;;;;;;6.27;4.50;;;;;;;3.01;52.33;100489.28;1433972;90;21713;-88
2023/04/05 07:18:30;;;;;;;11.30;4.13;;;;;;;3.44;51.00;100487.35;1422494;91;21945;-88
2023/04/05 07:21:02;;;;;;;4.13;3.23;;;;;;;3.52;50.61;100490.31;1437304;90;21984;-86
2023/04/05 07:23:30;;;;;;;4.80;2.53;;;;;;;3.52;50.61;100490.31;1437420;90;21850;-87
2023/04/05 07:26:07;;;;;;;6.53;2.70;;;;;;;3.26;49.97;100489.87;1436117;91;21858;-87
2023/04/05 07:28:34;;;;;;;8.07;4.57;;;;;;;3.30;50.04;100488.72;1437749;90;22987;-91
2023/04/05 07:31:02;;;;;;;8.13;2.50;;;;;;;3.36;50.38;100489.15;1361953;91;21772;-88
2023/04/05 07:33:30;;;;;;;6.40;2.93;;;;;;;3.49;49.76;100483.97;1430979;90;21538;-88
2023/04/05 07:35:58;;;;;;;7.23;3.20;;;;;;;3.94;49.13;100471.83;1436648;90;22673;-86
2023/04/05 07:38:28;;;;;;;7.93;3.07;;;;;;;4.11;48.55;100479.85;1438970;90;22128;-85
2023/04/05 07:40:56;;;;;;;5.92;3.00;;;;;;;4.11;48.55;100479.85;1436795;90;22112;-89
2023/04/05 07:43:24;;;;;;;4.57;2.67;;;;;;;3.98;48.00;100484.63;1436491;90;21513;-85
2023/04/05 07:45:54;;;;;;;5.47;3.40;;;;;;;3.90;48.09;100482.98;1420356;91;22090;-86
2023/04/05 07:48:21;;;;;;;4.43;2.90;;;;;;;4.01;48.30;100478.34;1433654;91;22157;-85
2023/04/05 07:50:48;;;;;;;8.70;2.30;;;;;;;4.25;48.23;100479.74;1438319;90;23058;-84
2023/04/05 07:53:16;;;;;;;4.40;2.63;;;;;;;4.19;47.21;100476.23;1434846;90;22225;-90
2023/04/05 07:55:43;;;;;;;4.30;2.30;;;;;;;4.00;47.62;100472.27;1438326;90;22105;-86
2023/04/05 07:58:10;;;;;;;4.40;1.90;;;;;;;3.75;47.94;100476.17;1439945;90;22418;-86
2023/04/05 08:00:38;;;;;;;3.60;2.07;;;;;;;3.95;47.87;100475.66;1506745;90;22093;-87
2023/04/05 08:03:06;;;;;;;3.43;1.90;;;;;;;3.93;48.43;100478.85;1365518;90;22310;-89
2023/04/05 08:05:33;;;;;;;4.33;2.30;;;;;;;3.94;47.78;100480.55;1501992;90;22069;-89
2023/04/05 08:08:00;;;;;;;8.27;3.20;;;;;;;4.04;48.07;100476.34;1413891;90;22216;-83
2023/04/05 08:10:28;;;;;;;2.83;2.07;;;;;;;4.35;48.55;100470.31;1436791;90;22076;-89
2023/04/05 08:12:55;;;;;;;6.87;2.17;;;;;;;4.29;48.35;100470.75;1444151;90;22223;-90
2023/04/05 08:15:22;;;;;;;6.17;2.77;;;;;;;4.06;47.66;100477.56;1422204;91;22076;-91
2023/04/05 08:17:50;;;;;;;5.97;3.17;;;;;;;3.98;47.65;100467.59;1431948;90;22268;-83
2023/04/05 08:20:20;;;;;;;7.77;2.70;;;;;;;4.15;47.95;100470.86;1433217;90;23081;-87
2023/04/05 08:22:47;;;;;;;5.30;2.72;;;;;;;4.12;47.84;100467.97;1439040;90;23019;-86
2023/04/05 08:25:14;;;;;;;4.27;2.20;;;;;;;3.97;47.48;100471.17;1432252;90;21401;-88
2023/04/05 08:27:42;;;;;;;6.60;2.20;;;;;;;4.29;47.40;100467.64;1439738;90;23196;-85
2023/04/05 08:30:10;;;;;;;4.80;1.93;;;;;;;4.40;46.92;100460.36;1441024;91;22150;-88
2023/04/05 08:32:39;;;;;;;5.95;2.72;;;;;;;4.31;46.29;100467.52;1509807;91;22135;-88
2023/04/05 08:37:47;;;;;;;4.63;2.90;;;;;;;4.59;46.27;100460.37;1507964;85;22556;-86
2023/04/05 08:40:13;;;;;;;3.97;2.97;;;;;;;4.38;46.62;100458.31;1469530;88;23156;-86
2023/04/05 08:42:44;;;;;;;6.77;2.00;;;;;;;4.40;46.92;100461.67;1460990;88;22279;-91
2023/04/05 08:45:12;;;;;;;5.55;1.85;;;;;;;4.84;47.70;100462.92;1476077;88;22153;-83
2023/04/05 08:47:39;;;;;;;3.10;2.07;;;;;;;4.95;45.12;100456.43;1474824;87;21478;-87
2023/04/05 08:50:09;;;;;;;4.90;2.33;;;;;;;4.77;46.23;100465.60;1438048;89;22443;-85
2023/04/05 08:52:37;;;;;;;7.63;2.67;;;;;;;5.13;46.46;100446.86;1371657;90;22088;-88
2023/04/05 08:55:05;;;;;;;2.97;1.50;;;;;;;5.13;46.46;100446.86;1366664;91;21474;-88
2023/04/05 08:57:33;;;;;;;8.23;2.57;;;;;;;5.15;45.43;100461.55;1372259;90;21354;-85
2023/04/05 09:00:01;;;;;;;5.07;2.07;;;;;;;5.29;46.15;100456.58;1369727;89;21421;-85
2023/04/05 09:02:28;;;;;;;4.00;1.93;;;;;;;5.34;45.20;100451.83;1360134;91;21334;-85
2023/04/05 09:04:56;;;;;;;5.70;2.10;;;;;;;5.62;45.28;100459.81;1359328;90;21533;-88
2023/04/05 09:07:24;;;;;;;3.80;1.93;;;;;;;5.49;43.39;100452.95;1362111;91;21394;-82
2023/04/05 09:09:54;;;;;;;5.27;3.03;;;;;;;5.61;44.58;100458.59;1434726;91;21562;-86
2023/04/05 09:12:23;;;;;;;4.33;1.97;;;;;;;6.01;44.89;100460.87;1357199;90;21422;-86
2023/04/05 09:14:50;;;;;;;7.10;2.30;;;;;;;5.80;44.20;100447.55;1362390;91;21413;-88
2023/04/05 09:17:20;;;;;;;2.70;1.47;;;;;;;5.87;44.09;100449.61;1360002;91;21406;-89
2023/04/05 09:19:49;;;;;;;4.53;2.13;;;;;;;5.62;42.92;100456.35;1357168;91;21362;-86
2023/04/05 09:22:17;;;;;;;5.57;1.63;;;;;;;5.98;44.09;100450.59;1510718;91;21422;-82
2023/04/05 09:24:45;;;;;;;6.17;2.97;;;;;;;5.92;42.27;100453.66;1360449;90;21464;-86
2023/04/05 09:27:17;;;;;;;7.57;2.03;;;;;;;6.08;43.08;100448.95;1366743;90;21488;-88
2023/04/05 09:29:47;;;;;;;8.17;2.40;;;;;;;6.15;42.43;100442.25;1520879;89;21474;-84
2023/04/05 09:32:15;;;;;;;7.27;2.60;;;;;;;6.31;43.49;100450.63;1364536;91;21478;-85
2023/04/05 09:34:43;;;;;;;2.30;1.50;;;;;;;6.39;41.80;100442.60;1439484;89;21443;-88
2023/04/05 09:37:20;;;;;;;5.03;2.60;;;;;;;6.50;41.49;100446.09;1449459;89;21500;-83
2023/04/05 09:39:49;;;;;;;3.23;2.07;;;;;;;6.03;42.11;100439.27;1460393;88;21547;-84
2023/04/05 09:42:18;;;;;;;3.30;1.80;;;;;;;6.31;42.85;100448.00;1460038;88;21487;-83
2023/04/05 09:45:04;;;;;;;9.70;3.23;;;;;;;6.43;42.23;100444.05;1461756;88;21441;-86
2023/04/05 09:47:35;;;;;;;2.00;1.80;;;;;;;6.73;42.52;100441.64;1459995;87;21530;-84
2023/04/05 09:50:05;;;;;;;3.80;1.50;;;;;;;7.37;41.44;100440.83;1551291;88;21309;-85
2023/04/05 09:52:31;;;;;;;3.60;2.47;;;;;;;7.26;40.90;100447.95;1391740;87;21354;-85
2023/04/05 09:55:01;;;;;;;3.07;1.70;;;;;;;6.97;40.45;100440.62;1382346;89;21557;-85
2023/04/05 09:57:31;;;;;;;3.13;1.90;;;;;;;7.07;40.81;100439.38;1396770;88;21493;-86
2023/04/05 09:59:57;;;;;;;2.13;1.60;;;;;;;6.76;39.74;100440.08;1545174;88;21442;-85
2023/04/05 10:02:24;;;;;;;2.60;1.50;;;;;;;7.11;40.08;100436.39;1402679;88;22378;-86
2023/04/05 10:04:51;;;;;;;5.63;2.40;;;;;;;7.09;40.21;100439.62;1395469;88;21381;-84
2023/04/05 10:07:18;;;;;;;3.27;2.23;;;;;;;7.30;40.67;100442.77;1395679;88;22175;-86
2023/04/05 10:09:47;;;;;;;2.60;1.57;;;;;;;7.73;39.77;100445.30;1395169;88;21449;-83
2023/04/05 10:12:27;;;;;;;3.07;1.63;;;;;;;7.46;39.39;100440.55;1394297;88;21531;-85
2023/04/05 10:14:55;;;;;;;3.45;1.62;;;;;;;7.13;39.93;100444.14;1394563;88;21339;-86
2023/04/05 10:17:55;;;;;;;4.27;1.90;;;;;;;6.77;40.24;100437.79;1393846;88;21405;-88
2023/04/05 10:20:24;;;;;;;4.00;1.60;;;;;;;6.51;41.42;100438.55;1497444;91;21636;-83
2023/04/05 10:22:58;;;;;;;3.60;1.70;;;;;;;6.44;40.83;100428.62;1393551;88;21316;-85
2023/04/05 10:25:54;;;;;;;2.90;1.33;;;;;;;6.28;41.77;100437.72;1439117;88;21498;-85
2023/04/05 10:30:53;;;;;;;6.23;1.80;;;;;;;7.08;41.23;100431.83;1512878;85;25780;-84
2023/04/05 10:33:23;;;;;;;3.90;1.73;;;;;;;7.24;39.81;100434.89;1482988;88;21441;-84
2023/04/05 10:36:23;;;;;;;3.70;2.02;;;;;;;7.20;39.98;100435.63;1487583;87;22110;-84
2023/04/05 10:39:28;;;;;;;4.20;1.83;;;;;;;7.12;39.77;100438.05;1480590;88;21440;-87
2023/04/05 10:42:02;;;;;;;3.37;1.93;;;;;;;7.28;40.44;100436.78;1483923;88;21718;-83
2023/04/05 10:44:36;;;;;;;2.80;1.53;;;;;;;7.47;40.29;100440.89;1462377;87;22483;-82
2023/04/05 10:47:06;;;;;;;2.97;1.73;;;;;;;7.52;39.86;100435.26;1481931;88;21620;-82
2023/04/05 10:49:41;;;;;;;3.70;1.73;;;;;;;7.49;39.59;100433.70;1485009;88;21478;-87
2023/04/05 10:52:09;;;;;;;2.23;1.40;;;;;;;7.28;39.59;100434.16;1468875;88;22513;-86
2023/04/05 10:54:35;;;;;;;6.10;1.20;;;;;;;7.33;40.27;100437.25;1459013;88;21507;-89
2023/04/05 10:57:08;;;;;;;2.97;1.57;;;;;;;7.29;40.18;100430.58;1478736;88;22328;-84
2023/04/05 10:59:37;;;;;;;2.57;1.50;;;;;;;7.75;38.84;100439.92;1437602;91;21741;-87
2023/04/05 11:02:04;;;;;;;1.87;1.20;;;;;;;7.53;38.21;100432.48;1395771;91;22550;-85
2023/04/05 11:04:33;;;;;;;1.53;1.33;;;;;;;7.63;39.40;100433.88;1492040;91;21406;-83
2023/04/05 11:07:15;;;;;;;2.80;1.27;;;;;;;7.68;37.52;100429.90;1362227;90;21390;-82
2023/04/05 11:10:01;;;;;;;2.30;1.47;;;;;;;7.74;39.01;100430.33;1387241;91;21637;-85
2023/04/05 11:12:57;;;;;;;5.33;1.20;;;;;;;7.86;38.80;100434.09;1496658;90;21442;-83
2023/04/05 11:15:31;;;;;;;2.67;1.50;;;;;;;7.91;38.67;100435.86;1455538;89;21485;-86
2023/04/05 11:18:21;;;;;;;4.53;2.63;;;;;;;8.32;38.37;100433.28;1517537;91;21376;-84
2023/04/05 11:20:54;;;;;;;2.37;1.47;;;;;;;8.67;37.41;100434.18;1499136;90;21471;-85
2023/04/05 11:23:22;;;;;;;2.43;1.33;;;;;;;8.72;37.34;100427.19;1440239;90;21419;-87
2023/04/05 11:25:56;;;;;;;6.30;1.93;;;;;;;8.67;37.56;100438.14;1362414;91;21325;-84
2023/04/05 11:28:32;;;;;;;5.83;1.80;;;;;;;8.50;37.93;100436.97;1518904;91;21420;-80
2023/04/05 11:31:18;;;;;;;2.70;1.40;;;;;;;8.45;38.32;100438.34;1513016;91;21443;-86
2023/04/05 11:34:13;;;;;;;1.70;1.27;;;;;;;8.45;38.02;100434.39;1512822;88;22409;-86
2023/04/05 11:36:43;;;;;;;2.63;1.50;;;;;;;8.33;38.63;100430.49;1432505;91;21593;-86
2023/04/05 11:39:22;;;;;;;3.53;1.13;;;;;;;7.92;38.29;100444.59;1474226;88;21449;-86
2023/04/05 11:42:00;;;;;;;4.45;1.30;;;;;;;7.60;38.70;100446.83;1478013;88;21456;-86
2023/04/05 11:44:47;;;;;;;5.40;1.37;;;;;;;7.68;38.18;100439.12;1477663;88;21508;-85
2023/04/05 11:47:20;;;;;;;3.40;1.50;;;;;;;8.01;39.75;100441.17;1477348;88;21663;-81
2023/04/05 11:49:50;;;;;;;6.97;2.40;;;;;;;8.30;37.93;100430.77;1477491;88;22891;-82
2023/04/05 11:52:19;;;;;;;3.30;1.10;;;;;;;8.64;37.92;100433.63;1478814;88;21419;-81